Airfield :
LOGIN :

Register | Disclaimer

   EN    FR    IT 

 










Legend :    VFR   Marginal VFR   IFR   Intensive IFR   Very Intensive IFR
Visi :
Ceiling :
>= 8 km
>= 3000ft
5 to 8 km
1000 to 3000 ft
1500m to 5 km
500 to 1000 ft
800 to 1500m
200 to 500 ft
< 800m
< 200 ft
Symbols :   Thunderstorms  Fog  Heavy snow  Heavy precipitations  Wind > 20 kt
SIGMETs :     Misc.  Thunderstorms  Icing  Turbulence  Mountain Waves  Volcanic Ashes






- Airport Elevation : 46 ft
- IATA code : SNN


EINN - Shannon

CURRENT METAR :
  • 172030Z 21008KT 9999 FEW018CB 04/03 Q1020 NOSIG

EXPIRED METARs :
  • 172000Z 24007KT 9999 FEW018CB 04/02 Q1020 NOSIG
  • 171930Z 25005KT 9999 FEW018CB 04/02 Q1019 NOSIG
  • 171900Z 26007KT 9999 FEW018CB 05/03 Q1019 NOSIG
  • 171830Z 24008KT 9999 FEW018CB 05/03 Q1019 NOSIG
  • 171800Z 25007KT 9999 FEW018CB 04/03 Q1018 NOSIG

TAF TAF EINN
Valid from the 17 at 18:00 until the 18 at 18:00 UTC


171700Z 1718/1818 24006KT 9999 FEW020 SCT040
BECMG 1723/1801 13005KT
PROB40
TEMPO 1802/1810 4000 BR
BECMG 1804/1806 VRB03KT
PROB30
TEMPO 1804/1810 0400 FZFG BKN001



MET'MAP, your aeronautical weather chart ! - Copyright ORBIFLY December 2007 - Disclaimer

ORBIFLY MET'MAP TEAM :

Programming & Development : Alexandra Zaïnal
Concept & original design : Baudouin d'Aumeries
Assistance for programming : Marc-Olivier Méhu
Technical & hardware support : Manuel Goepfert

Contact : metmap@orbifly.com




SOURCES & CREDITS :

   NOAA